createdAt,value
2018-06-05T00:03:48.758Z,27
2018-06-05T00:13:37.268Z,29
2018-06-05T00:22:30.473Z,33
2018-06-05T00:32:31.130Z,33
2018-06-05T00:42:31.904Z,35
2018-06-05T00:52:29.289Z,39
2018-06-05T01:02:30.409Z,37
2018-06-05T01:12:29.987Z,28
2018-06-05T01:22:34.053Z,25
2018-06-05T01:32:36.684Z,27
2018-06-05T01:42:37.621Z,31
2018-06-05T01:52:30.301Z,29
2018-06-05T02:02:30.672Z,27
2018-06-05T02:12:32.168Z,26
2018-06-05T02:22:29.604Z,25
2018-06-05T02:32:30.263Z,25
2018-06-05T02:42:30.429Z,24
2018-06-05T02:52:31.184Z,29
2018-06-05T03:02:29.383Z,33
2018-06-05T03:12:32.420Z,27
2018-06-05T03:26:49.038Z,25
2018-06-05T03:32:31.987Z,24
2018-06-05T03:42:33.674Z,25
2018-06-05T03:53:27.483Z,22
2018-06-05T04:02:30.547Z,23
2018-06-05T04:12:35.757Z,23
2018-06-05T04:22:30.156Z,24
2018-06-05T04:32:31.247Z,23
2018-06-05T04:42:32.667Z,25
2018-06-05T04:52:31.040Z,27
2018-06-05T05:03:53.242Z,20
2018-06-05T05:12:31.876Z,19
2018-06-05T05:22:15.896Z,23
2018-06-05T05:32:15.810Z,21
2018-06-05T05:42:16.154Z,20
2018-06-05T05:52:15.806Z,23
2018-06-05T06:02:15.905Z,20
2018-06-05T06:12:15.976Z,20
2018-06-05T06:22:15.785Z,26
2018-06-05T06:32:15.784Z,20
2018-06-05T06:42:16.196Z,26
2018-06-05T06:52:15.923Z,25
2018-06-05T07:02:15.891Z,29
2018-06-05T07:12:15.948Z,28
2018-06-05T07:22:15.890Z,29
2018-06-05T07:32:16.168Z,32
2018-06-05T07:42:16.366Z,28
2018-06-05T07:52:15.933Z,29
2018-06-05T08:02:15.959Z,31
2018-06-05T08:12:15.964Z,27
2018-06-05T08:22:16.438Z,26
2018-06-05T08:32:16.015Z,29
2018-06-05T08:42:16.108Z,33
2018-06-05T08:52:16.061Z,32
2018-06-05T09:02:16.382Z,31
2018-06-05T09:12:16.022Z,30
2018-06-05T09:22:15.947Z,29
2018-06-05T09:32:16.031Z,28
2018-06-05T09:42:17.038Z,28
2018-06-05T09:52:16.251Z,25
2018-06-05T10:02:16.031Z,25
2018-06-05T10:12:16.091Z,22
2018-06-05T10:22:16.120Z,23
2018-06-05T10:32:16.114Z,24
2018-06-05T10:42:16.102Z,20
2018-06-05T10:52:16.063Z,21
2018-06-05T11:02:16.249Z,21
2018-06-05T11:12:16.160Z,21
2018-06-05T11:22:16.148Z,22
2018-06-05T11:32:16.150Z,23
2018-06-05T11:42:16.069Z,23
2018-06-05T11:52:16.170Z,25
2018-06-05T12:02:16.064Z,26
2018-06-05T12:12:16.099Z,24
2018-06-05T12:22:23.145Z,25
2018-06-05T12:32:19.700Z,25
2018-06-05T12:42:20.099Z,25
2018-06-05T12:52:20.135Z,25
2018-06-05T13:02:16.165Z,25
2018-06-05T13:12:16.165Z,24
2018-06-05T13:22:16.097Z,23
2018-06-05T13:32:16.188Z,22
2018-06-05T13:42:16.203Z,21
2018-06-05T13:52:16.257Z,22
2018-06-05T14:02:16.145Z,22
2018-06-05T14:12:16.265Z,21
2018-06-05T14:22:16.148Z,22
2018-06-05T14:32:16.223Z,21
2018-06-05T14:42:16.244Z,23
2018-06-05T14:52:16.132Z,22
2018-06-05T15:02:16.190Z,21
2018-06-05T15:12:16.215Z,24
2018-06-05T15:22:17.244Z,24
2018-06-05T15:32:16.213Z,25
2018-06-05T15:42:16.170Z,24
2018-06-05T15:52:16.153Z,27
2018-06-05T16:02:16.129Z,25
2018-06-05T16:12:16.192Z,26
2018-06-05T16:22:16.149Z,28
2018-06-05T16:32:16.106Z,26
2018-06-05T16:42:16.146Z,25
2018-06-05T16:52:16.141Z,25
2018-06-05T17:02:16.215Z,23
2018-06-05T17:12:16.244Z,22
2018-06-05T17:22:16.915Z,22
2018-06-05T17:32:16.201Z,20
2018-06-05T17:42:16.218Z,18
2018-06-05T17:52:16.271Z,18
2018-06-05T18:02:16.244Z,19
2018-06-05T18:12:16.262Z,17
2018-06-05T18:22:17.032Z,17
2018-06-05T18:32:16.111Z,17
2018-06-05T18:42:16.280Z,17
2018-06-05T18:52:16.267Z,14
2018-06-05T19:02:16.127Z,15
2018-06-05T19:12:16.150Z,16
2018-06-05T19:22:16.107Z,16
2018-06-05T19:32:16.756Z,15
2018-06-05T19:42:17.063Z,17
2018-06-05T19:52:16.354Z,16
2018-06-05T20:02:16.161Z,16
2018-06-05T20:12:16.198Z,17
2018-06-05T20:22:16.261Z,17
2018-06-05T20:32:16.299Z,16
2018-06-05T20:42:16.144Z,17
2018-06-05T20:52:16.155Z,16
2018-06-05T21:02:16.777Z,19
2018-06-05T21:12:16.194Z,17
2018-06-05T21:22:16.172Z,17
2018-06-05T21:32:16.254Z,19
2018-06-05T21:42:16.268Z,20
2018-06-05T21:52:16.261Z,23
2018-06-05T22:02:16.319Z,21
2018-06-05T22:12:16.202Z,18
2018-06-05T22:22:16.220Z,22
2018-06-05T22:32:16.137Z,21
2018-06-05T22:42:16.160Z,22
2018-06-05T22:52:16.237Z,21
2018-06-05T23:02:16.170Z,21
2018-06-05T23:12:16.212Z,22
2018-06-05T23:22:16.177Z,23
2018-06-05T23:32:16.347Z,23
2018-06-05T23:42:16.207Z,22
2018-06-05T23:52:16.287Z,24
